sensor_id;sensor_type;location;lat;lon;timestamp;pressure;altitude;pressure_sealevel;temperature;humidity
12209;BME280;6167;43.080;25.634;2023-12-14T00:00:52;58106.44;;;-142.66;100.00
12209;BME280;6167;43.080;25.634;2023-12-14T00:03:19;58106.44;;;-142.66;100.00
12209;BME280;6167;43.080;25.634;2023-12-14T00:05:46;58106.44;;;-142.66;100.00
12209;BME280;6167;43.080;25.634;2023-12-14T00:08:13;58106.44;;;-142.66;100.00
12209;BME280;6167;43.080;25.634;2023-12-14T00:10:40;58106.44;;;-142.66;100.00
12209;BME280;6167;43.080;25.634;2023-12-14T00:13:07;58106.44;;;-142.66;100.00
12209;BME280;6167;43.080;25.634;2023-12-14T00:15:35;58106.44;;;-142.66;100.00
12209;BME280;6167;43.080;25.634;2023-12-14T00:18:02;58106.44;;;-142.66;100.00
12209;BME280;6167;43.080;25.634;2023-12-14T00:20:29;58106.44;;;-142.66;100.00
12209;BME280;6167;43.080;25.634;2023-12-14T00:22:56;58106.44;;;-142.66;100.00
12209;BME280;6167;43.080;25.634;2023-12-14T00:25:23;58106.44;;;-142.66;100.00
12209;BME280;6167;43.080;25.634;2023-12-14T00:27:50;58106.44;;;-142.66;100.00
12209;BME280;6167;43.080;25.634;2023-12-14T00:30:17;58106.44;;;-142.66;100.00
12209;BME280;6167;43.080;25.634;2023-12-14T00:32:46;58106.44;;;-142.66;100.00
12209;BME280;6167;43.080;25.634;2023-12-14T00:35:13;58106.44;;;-142.66;100.00
12209;BME280;6167;43.080;25.634;2023-12-14T00:37:40;58106.44;;;-142.66;100.00
12209;BME280;6167;43.080;25.634;2023-12-14T00:40:08;58106.44;;;-142.66;100.00
12209;BME280;6167;43.080;25.634;2023-12-14T00:42:35;58106.44;;;-142.66;100.00
12209;BME280;6167;43.080;25.634;2023-12-14T00:45:02;58106.44;;;-142.66;100.00
12209;BME280;6167;43.080;25.634;2023-12-14T00:47:29;58106.44;;;-142.66;100.00
12209;BME280;6167;43.080;25.634;2023-12-14T00:49:57;58106.44;;;-142.66;100.00
12209;BME280;6167;43.080;25.634;2023-12-14T00:52:24;58106.44;;;-142.66;100.00
12209;BME280;6167;43.080;25.634;2023-12-14T00:54:51;58106.44;;;-142.66;100.00
12209;BME280;6167;43.080;25.634;2023-12-14T00:57:18;58106.44;;;-142.66;100.00
12209;BME280;6167;43.080;25.634;2023-12-14T00:59:45;58106.44;;;-142.66;100.00
12209;BME280;6167;43.080;25.634;2023-12-14T01:02:12;58106.44;;;-142.66;100.00
12209;BME280;6167;43.080;25.634;2023-12-14T01:04:39;58106.44;;;-142.66;100.00
12209;BME280;6167;43.080;25.634;2023-12-14T01:07:09;58106.44;;;-142.66;100.00
12209;BME280;6167;43.080;25.634;2023-12-14T01:09:36;58106.44;;;-142.66;100.00
12209;BME280;6167;43.080;25.634;2023-12-14T01:12:04;58106.44;;;-142.66;100.00
12209;BME280;6167;43.080;25.634;2023-12-14T01:14:31;58106.44;;;-142.66;100.00
12209;BME280;6167;43.080;25.634;2023-12-14T01:16:58;58106.44;;;-142.66;100.00
12209;BME280;6167;43.080;25.634;2023-12-14T01:19:25;58106.44;;;-142.66;100.00
12209;BME280;6167;43.080;25.634;2023-12-14T01:21:52;58106.44;;;-142.66;100.00
12209;BME280;6167;43.080;25.634;2023-12-14T01:24:22;58106.44;;;-142.66;100.00
12209;BME280;6167;43.080;25.634;2023-12-14T01:26:49;58106.44;;;-142.66;100.00
12209;BME280;6167;43.080;25.634;2023-12-14T01:29:16;58106.44;;;-142.66;100.00
12209;BME280;6167;43.080;25.634;2023-12-14T01:31:43;58106.44;;;-142.66;100.00
12209;BME280;6167;43.080;25.634;2023-12-14T01:34:09;58106.44;;;-142.66;100.00
12209;BME280;6167;43.080;25.634;2023-12-14T01:36:38;58106.44;;;-142.66;100.00
12209;BME280;6167;43.080;25.634;2023-12-14T01:39:04;58106.44;;;-142.66;100.00
12209;BME280;6167;43.080;25.634;2023-12-14T01:41:33;58106.44;;;-142.66;100.00
12209;BME280;6167;43.080;25.634;2023-12-14T01:44:00;58106.44;;;-142.66;100.00
12209;BME280;6167;43.080;25.634;2023-12-14T01:46:27;58106.44;;;-142.66;100.00
12209;BME280;6167;43.080;25.634;2023-12-14T01:48:54;58106.44;;;-142.66;100.00
12209;BME280;6167;43.080;25.634;2023-12-14T01:51:21;58106.44;;;-142.66;100.00
12209;BME280;6167;43.080;25.634;2023-12-14T01:53:48;58106.44;;;-142.66;100.00
12209;BME280;6167;43.080;25.634;2023-12-14T01:56:15;58106.44;;;-142.66;100.00
12209;BME280;6167;43.080;25.634;2023-12-14T01:58:43;58106.44;;;-142.66;100.00
12209;BME280;6167;43.080;25.634;2023-12-14T02:01:16;58106.44;;;-142.66;100.00
12209;BME280;6167;43.080;25.634;2023-12-14T02:03:45;58106.44;;;-142.66;100.00
12209;BME280;6167;43.080;25.634;2023-12-14T02:06:12;58106.44;;;-142.66;100.00
12209;BME280;6167;43.080;25.634;2023-12-14T02:08:39;58106.44;;;-142.66;100.00
12209;BME280;6167;43.080;25.634;2023-12-14T02:11:06;58106.44;;;-142.66;100.00
12209;BME280;6167;43.080;25.634;2023-12-14T02:13:33;58106.44;;;-142.66;100.00
12209;BME280;6167;43.080;25.634;2023-12-14T02:16:02;58106.44;;;-142.66;100.00
12209;BME280;6167;43.080;25.634;2023-12-14T02:18:29;58106.44;;;-142.66;100.00
12209;BME280;6167;43.080;25.634;2023-12-14T02:20:56;58106.44;;;-142.66;100.00
12209;BME280;6167;43.080;25.634;2023-12-14T02:23:24;58106.44;;;-142.66;100.00
12209;BME280;6167;43.080;25.634;2023-12-14T02:25:51;58106.44;;;-142.66;100.00
12209;BME280;6167;43.080;25.634;2023-12-14T02:28:18;58106.44;;;-142.66;100.00
12209;BME280;6167;43.080;25.634;2023-12-14T02:30:45;58106.44;;;-142.66;100.00
12209;BME280;6167;43.080;25.634;2023-12-14T02:33:12;58106.44;;;-142.66;100.00
12209;BME280;6167;43.080;25.634;2023-12-14T02:35:40;58106.44;;;-142.66;100.00
12209;BME280;6167;43.080;25.634;2023-12-14T02:38:07;58106.44;;;-142.66;100.00
12209;BME280;6167;43.080;25.634;2023-12-14T02:40:35;58106.44;;;-142.66;100.00
12209;BME280;6167;43.080;25.634;2023-12-14T02:43:02;58106.44;;;-142.66;100.00
12209;BME280;6167;43.080;25.634;2023-12-14T02:45:29;58106.44;;;-142.66;100.00
12209;BME280;6167;43.080;25.634;2023-12-14T02:47:56;58106.44;;;-142.66;100.00
12209;BME280;6167;43.080;25.634;2023-12-14T02:50:23;58106.44;;;-142.66;100.00
12209;BME280;6167;43.080;25.634;2023-12-14T02:52:50;58106.44;;;-142.66;100.00
12209;BME280;6167;43.080;25.634;2023-12-14T02:55:17;58106.44;;;-142.66;100.00
12209;BME280;6167;43.080;25.634;2023-12-14T02:57:46;58106.44;;;-142.66;100.00
12209;BME280;6167;43.080;25.634;2023-12-14T03:00:13;58106.44;;;-142.66;100.00
12209;BME280;6167;43.080;25.634;2023-12-14T03:02:40;58106.44;;;-142.66;100.00
12209;BME280;6167;43.080;25.634;2023-12-14T03:05:08;58106.44;;;-142.66;100.00
12209;BME280;6167;43.080;25.634;2023-12-14T03:07:35;58106.44;;;-142.66;100.00
12209;BME280;6167;43.080;25.634;2023-12-14T03:10:02;58106.44;;;-142.66;100.00
12209;BME280;6167;43.080;25.634;2023-12-14T03:12:29;58106.44;;;-142.66;100.00
12209;BME280;6167;43.080;25.634;2023-12-14T03:14:58;58106.44;;;-142.66;100.00
12209;BME280;6167;43.080;25.634;2023-12-14T03:17:25;58106.44;;;-142.66;100.00
12209;BME280;6167;43.080;25.634;2023-12-14T03:19:52;58106.44;;;-142.66;100.00
12209;BME280;6167;43.080;25.634;2023-12-14T03:22:19;58106.44;;;-142.66;100.00
12209;BME280;6167;43.080;25.634;2023-12-14T03:24:46;58106.44;;;-142.66;100.00
12209;BME280;6167;43.080;25.634;2023-12-14T03:27:13;58106.44;;;-142.66;100.00
12209;BME280;6167;43.080;25.634;2023-12-14T03:29:39;58106.44;;;-142.66;100.00
12209;BME280;6167;43.080;25.634;2023-12-14T03:32:08;58106.44;;;-142.66;100.00
12209;BME280;6167;43.080;25.634;2023-12-14T03:34:35;58106.44;;;-142.66;100.00
12209;BME280;6167;43.080;25.634;2023-12-14T03:37:02;58106.44;;;-142.66;100.00
12209;BME280;6167;43.080;25.634;2023-12-14T03:39:29;58106.44;;;-142.66;100.00
12209;BME280;6167;43.080;25.634;2023-12-14T03:41:56;58106.44;;;-142.66;100.00
12209;BME280;6167;43.080;25.634;2023-12-14T03:44:23;58106.44;;;-142.66;100.00
12209;BME280;6167;43.080;25.634;2023-12-14T03:46:50;58106.44;;;-142.66;100.00
12209;BME280;6167;43.080;25.634;2023-12-14T03:49:21;58106.44;;;-142.66;100.00
12209;BME280;6167;43.080;25.634;2023-12-14T03:51:48;58106.44;;;-142.66;100.00
12209;BME280;6167;43.080;25.634;2023-12-14T03:54:15;58106.44;;;-142.66;100.00
12209;BME280;6167;43.080;25.634;2023-12-14T03:56:42;58106.44;;;-142.66;100.00
12209;BME280;6167;43.080;25.634;2023-12-14T03:59:08;58106.44;;;-142.66;100.00
12209;BME280;6167;43.080;25.634;2023-12-14T04:01:35;58106.44;;;-142.66;100.00
12209;BME280;6167;43.080;25.634;2023-12-14T04:04:05;58106.44;;;-142.66;100.00
12209;BME280;6167;43.080;25.634;2023-12-14T04:06:33;58106.44;;;-142.66;100.00
12209;BME280;6167;43.080;25.634;2023-12-14T04:09:00;58106.44;;;-142.66;100.00
12209;BME280;6167;43.080;25.634;2023-12-14T04:11:27;58106.44;;;-142.66;100.00
12209;BME280;6167;43.080;25.634;2023-12-14T04:13:55;58106.44;;;-142.66;100.00
12209;BME280;6167;43.080;25.634;2023-12-14T04:16:22;58106.44;;;-142.66;100.00
12209;BME280;6167;43.080;25.634;2023-12-14T04:18:49;58106.44;;;-142.66;100.00
12209;BME280;6167;43.080;25.634;2023-12-14T04:21:16;58106.44;;;-142.66;100.00
12209;BME280;6167;43.080;25.634;2023-12-14T04:23:45;58106.44;;;-142.66;100.00
12209;BME280;6167;43.080;25.634;2023-12-14T04:26:12;58106.44;;;-142.66;100.00
12209;BME280;6167;43.080;25.634;2023-12-14T04:28:39;58106.44;;;-142.66;100.00
12209;BME280;6167;43.080;25.634;2023-12-14T04:31:09;58106.44;;;-142.66;100.00
12209;BME280;6167;43.080;25.634;2023-12-14T04:33:38;58106.44;;;-142.66;100.00
12209;BME280;6167;43.080;25.634;2023-12-14T04:36:06;58106.44;;;-142.66;100.00
12209;BME280;6167;43.080;25.634;2023-12-14T04:38:33;58106.44;;;-142.66;100.00
12209;BME280;6167;43.080;25.634;2023-12-14T04:41:01;58106.44;;;-142.66;100.00
12209;BME280;6167;43.080;25.634;2023-12-14T04:43:28;58106.44;;;-142.66;100.00
12209;BME280;6167;43.080;25.634;2023-12-14T04:45:57;58106.44;;;-142.66;100.00
12209;BME280;6167;43.080;25.634;2023-12-14T04:48:24;58106.44;;;-142.66;100.00
12209;BME280;6167;43.080;25.634;2023-12-14T04:50:51;58106.44;;;-142.66;100.00
12209;BME280;6167;43.080;25.634;2023-12-14T04:53:18;58106.44;;;-142.66;100.00
12209;BME280;6167;43.080;25.634;2023-12-14T04:55:45;58106.44;;;-142.66;100.00
12209;BME280;6167;43.080;25.634;2023-12-14T04:58:13;58106.44;;;-142.66;100.00
12209;BME280;6167;43.080;25.634;2023-12-14T05:00:40;58106.44;;;-142.66;100.00
12209;BME280;6167;43.080;25.634;2023-12-14T05:03:08;58106.44;;;-142.66;100.00
12209;BME280;6167;43.080;25.634;2023-12-14T05:05:35;58106.44;;;-142.66;100.00
12209;BME280;6167;43.080;25.634;2023-12-14T05:08:03;58106.44;;;-142.66;100.00
12209;BME280;6167;43.080;25.634;2023-12-14T05:10:30;58106.44;;;-142.66;100.00
12209;BME280;6167;43.080;25.634;2023-12-14T05:12:57;58106.44;;;-142.66;100.00
12209;BME280;6167;43.080;25.634;2023-12-14T05:15:25;58106.44;;;-142.66;100.00
12209;BME280;6167;43.080;25.634;2023-12-14T05:17:52;58106.44;;;-142.66;100.00
12209;BME280;6167;43.080;25.634;2023-12-14T05:20:19;58106.44;;;-142.66;100.00
12209;BME280;6167;43.080;25.634;2023-12-14T05:22:47;58106.44;;;-142.66;100.00
12209;BME280;6167;43.080;25.634;2023-12-14T05:25:13;58106.44;;;-142.66;100.00
12209;BME280;6167;43.080;25.634;2023-12-14T05:27:41;58106.44;;;-142.66;100.00
12209;BME280;6167;43.080;25.634;2023-12-14T05:30:09;58106.44;;;-142.66;100.00
12209;BME280;6167;43.080;25.634;2023-12-14T05:32:37;58106.44;;;-142.66;100.00
12209;BME280;6167;43.080;25.634;2023-12-14T05:35:05;58106.44;;;-142.66;100.00
12209;BME280;6167;43.080;25.634;2023-12-14T05:37:32;58106.44;;;-142.66;100.00
12209;BME280;6167;43.080;25.634;2023-12-14T05:39:59;58106.44;;;-142.66;100.00
12209;BME280;6167;43.080;25.634;2023-12-14T05:42:26;58106.44;;;-142.66;100.00
12209;BME280;6167;43.080;25.634;2023-12-14T05:44:53;58106.44;;;-142.66;100.00
12209;BME280;6167;43.080;25.634;2023-12-14T05:47:20;58106.44;;;-142.66;100.00
12209;BME280;6167;43.080;25.634;2023-12-14T05:49:48;58106.44;;;-142.66;100.00
12209;BME280;6167;43.080;25.634;2023-12-14T05:52:15;58106.44;;;-142.66;100.00
12209;BME280;6167;43.080;25.634;2023-12-14T05:54:42;58106.44;;;-142.66;100.00
12209;BME280;6167;43.080;25.634;2023-12-14T05:57:09;58106.44;;;-142.66;100.00
12209;BME280;6167;43.080;25.634;2023-12-14T05:59:38;58106.44;;;-142.66;100.00
12209;BME280;6167;43.080;25.634;2023-12-14T06:02:05;58106.44;;;-142.66;100.00
12209;BME280;6167;43.080;25.634;2023-12-14T06:04:33;58106.44;;;-142.66;100.00
12209;BME280;6167;43.080;25.634;2023-12-14T06:07:02;58106.44;;;-142.66;100.00
12209;BME280;6167;43.080;25.634;2023-12-14T06:09:29;58106.44;;;-142.66;100.00
12209;BME280;6167;43.080;25.634;2023-12-14T06:11:59;58106.44;;;-142.66;100.00
12209;BME280;6167;43.080;25.634;2023-12-14T06:14:27;58106.44;;;-142.66;100.00
12209;BME280;6167;43.080;25.634;2023-12-14T06:16:54;58106.44;;;-142.66;100.00
12209;BME280;6167;43.080;25.634;2023-12-14T06:19:21;58106.44;;;-142.66;100.00
12209;BME280;6167;43.080;25.634;2023-12-14T06:21:49;58106.44;;;-142.66;100.00
12209;BME280;6167;43.080;25.634;2023-12-14T06:24:17;58106.44;;;-142.66;100.00
12209;BME280;6167;43.080;25.634;2023-12-14T06:26:44;58106.44;;;-142.66;100.00
12209;BME280;6167;43.080;25.634;2023-12-14T06:29:12;58106.44;;;-142.66;100.00
12209;BME280;6167;43.080;25.634;2023-12-14T06:31:39;58106.44;;;-142.66;100.00
12209;BME280;6167;43.080;25.634;2023-12-14T06:34:06;58106.44;;;-142.66;100.00
12209;BME280;6167;43.080;25.634;2023-12-14T06:36:33;58106.44;;;-142.66;100.00
12209;BME280;6167;43.080;25.634;2023-12-14T06:39:02;58106.44;;;-142.66;100.00
12209;BME280;6167;43.080;25.634;2023-12-14T06:41:31;58106.44;;;-142.66;100.00
12209;BME280;6167;43.080;25.634;2023-12-14T06:43:57;58106.44;;;-142.66;100.00
12209;BME280;6167;43.080;25.634;2023-12-14T06:46:24;58106.44;;;-142.66;100.00
12209;BME280;6167;43.080;25.634;2023-12-14T06:48:51;58106.44;;;-142.66;100.00
12209;BME280;6167;43.080;25.634;2023-12-14T06:51:19;58106.44;;;-142.66;100.00
12209;BME280;6167;43.080;25.634;2023-12-14T06:53:46;58106.44;;;-142.66;100.00
12209;BME280;6167;43.080;25.634;2023-12-14T06:56:13;58106.44;;;-142.66;100.00
12209;BME280;6167;43.080;25.634;2023-12-14T06:58:43;58106.44;;;-142.66;100.00
12209;BME280;6167;43.080;25.634;2023-12-14T07:01:12;58106.44;;;-142.66;100.00
12209;BME280;6167;43.080;25.634;2023-12-14T07:03:40;58106.44;;;-142.66;100.00
12209;BME280;6167;43.080;25.634;2023-12-14T07:06:07;58106.44;;;-142.66;100.00
12209;BME280;6167;43.080;25.634;2023-12-14T07:08:38;58106.44;;;-142.66;100.00
12209;BME280;6167;43.080;25.634;2023-12-14T07:11:06;58106.44;;;-142.66;100.00
12209;BME280;6167;43.080;25.634;2023-12-14T07:13:33;58106.44;;;-142.66;100.00
12209;BME280;6167;43.080;25.634;2023-12-14T07:16:05;58106.44;;;-142.66;100.00
12209;BME280;6167;43.080;25.634;2023-12-14T07:18:33;58106.44;;;-142.66;100.00
12209;BME280;6167;43.080;25.634;2023-12-14T07:21:00;58106.44;;;-142.66;100.00
12209;BME280;6167;43.080;25.634;2023-12-14T07:23:27;58106.44;;;-142.66;100.00
12209;BME280;6167;43.080;25.634;2023-12-14T07:25:55;58106.44;;;-142.66;100.00
12209;BME280;6167;43.080;25.634;2023-12-14T07:28:22;58106.44;;;-142.66;100.00
12209;BME280;6167;43.080;25.634;2023-12-14T07:30:50;58106.44;;;-142.66;100.00
12209;BME280;6167;43.080;25.634;2023-12-14T07:33:18;58106.44;;;-142.66;100.00
12209;BME280;6167;43.080;25.634;2023-12-14T07:35:45;58106.44;;;-142.66;100.00
12209;BME280;6167;43.080;25.634;2023-12-14T07:38:13;58106.44;;;-142.66;100.00
12209;BME280;6167;43.080;25.634;2023-12-14T07:40:40;58106.44;;;-142.66;100.00
12209;BME280;6167;43.080;25.634;2023-12-14T07:43:08;58106.44;;;-142.66;100.00
12209;BME280;6167;43.080;25.634;2023-12-14T07:45:34;58106.44;;;-142.66;100.00
12209;BME280;6167;43.080;25.634;2023-12-14T07:48:02;58106.44;;;-142.66;100.00
12209;BME280;6167;43.080;25.634;2023-12-14T07:50:30;58106.44;;;-142.66;100.00
12209;BME280;6167;43.080;25.634;2023-12-14T07:52:58;58106.44;;;-142.66;100.00
12209;BME280;6167;43.080;25.634;2023-12-14T07:55:25;58106.44;;;-142.66;100.00
12209;BME280;6167;43.080;25.634;2023-12-14T07:57:52;58106.44;;;-142.66;100.00
12209;BME280;6167;43.080;25.634;2023-12-14T08:00:19;58106.44;;;-142.66;100.00
12209;BME280;6167;43.080;25.634;2023-12-14T08:02:46;58106.44;;;-142.66;100.00
12209;BME280;6167;43.080;25.634;2023-12-14T08:05:13;58106.44;;;-142.66;100.00
12209;BME280;6167;43.080;25.634;2023-12-14T08:07:42;58106.44;;;-142.66;100.00
12209;BME280;6167;43.080;25.634;2023-12-14T08:10:09;58106.44;;;-142.66;100.00
12209;BME280;6167;43.080;25.634;2023-12-14T08:12:36;58106.44;;;-142.66;100.00
12209;BME280;6167;43.080;25.634;2023-12-14T08:15:04;58106.44;;;-142.66;100.00
12209;BME280;6167;43.080;25.634;2023-12-14T08:17:31;58106.44;;;-142.66;100.00
12209;BME280;6167;43.080;25.634;2023-12-14T08:19:58;58106.44;;;-142.66;100.00
12209;BME280;6167;43.080;25.634;2023-12-14T08:22:25;58106.44;;;-142.66;100.00
12209;BME280;6167;43.080;25.634;2023-12-14T08:24:53;58106.44;;;-142.66;100.00
12209;BME280;6167;43.080;25.634;2023-12-14T08:27:20;58106.44;;;-142.66;100.00
12209;BME280;6167;43.080;25.634;2023-12-14T08:29:47;58106.44;;;-142.66;100.00
12209;BME280;6167;43.080;25.634;2023-12-14T08:32:14;58106.44;;;-142.66;100.00
12209;BME280;6167;43.080;25.634;2023-12-14T08:34:41;58106.44;;;-142.66;100.00
12209;BME280;6167;43.080;25.634;2023-12-14T08:37:08;58106.44;;;-142.66;100.00
12209;BME280;6167;43.080;25.634;2023-12-14T08:39:35;58106.44;;;-142.66;100.00
12209;BME280;6167;43.080;25.634;2023-12-14T08:42:12;58106.44;;;-142.66;100.00
12209;BME280;6167;43.080;25.634;2023-12-14T08:44:41;58106.44;;;-142.66;100.00
12209;BME280;6167;43.080;25.634;2023-12-14T08:47:07;58106.44;;;-142.66;100.00
12209;BME280;6167;43.080;25.634;2023-12-14T08:49:34;58106.44;;;-142.66;100.00
12209;BME280;6167;43.080;25.634;2023-12-14T08:52:02;58106.44;;;-142.66;100.00
12209;BME280;6167;43.080;25.634;2023-12-14T08:57:01;98791.63;;;10.29;100.00
12209;BME280;6167;43.080;25.634;2023-12-14T08:59:28;98792.28;;;10.17;100.00
12209;BME280;6167;43.080;25.634;2023-12-14T09:01:55;98809.25;;;9.80;100.00
12209;BME280;6167;43.080;25.634;2023-12-14T09:04:25;98796.47;;;9.72;100.00
12209;BME280;6167;43.080;25.634;2023-12-14T09:06:52;98791.69;;;9.63;100.00
12209;BME280;6167;43.080;25.634;2023-12-14T09:09:19;98799.56;;;9.47;100.00
12209;BME280;6167;43.080;25.634;2023-12-14T09:11:46;98819.88;;;9.45;100.00
12209;BME280;6167;43.080;25.634;2023-12-14T09:14:15;98832.13;;;9.13;100.00
12209;BME280;6167;43.080;25.634;2023-12-14T09:16:42;98829.69;;;9.09;100.00
12209;BME280;6167;43.080;25.634;2023-12-14T09:19:09;98833.72;;;9.33;100.00
12209;BME280;6167;43.080;25.634;2023-12-14T09:21:36;98826.81;;;9.48;100.00
12209;BME280;6167;43.080;25.634;2023-12-14T09:24:03;98811.94;;;9.62;100.00
12209;BME280;6167;43.080;25.634;2023-12-14T09:26:30;98814.81;;;9.75;100.00
12209;BME280;6167;43.080;25.634;2023-12-14T09:28:57;98804.09;;;10.10;100.00
12209;BME280;6167;43.080;25.634;2023-12-14T09:31:26;98796.97;;;10.43;100.00
12209;BME280;6167;43.080;25.634;2023-12-14T09:33:53;98808.78;;;10.67;100.00
12209;BME280;6167;43.080;25.634;2023-12-14T09:36:19;98818.19;;;10.73;100.00
12209;BME280;6167;43.080;25.634;2023-12-14T09:38:46;98810.41;;;10.70;100.00
12209;BME280;6167;43.080;25.634;2023-12-14T09:41:14;98816.09;;;10.94;100.00
12209;BME280;6167;43.080;25.634;2023-12-14T09:43:41;98821.00;;;11.30;100.00
12209;BME280;6167;43.080;25.634;2023-12-14T09:46:09;98826.88;;;11.35;100.00
12209;BME280;6167;43.080;25.634;2023-12-14T09:48:39;98823.75;;;11.28;100.00
12209;BME280;6167;43.080;25.634;2023-12-14T09:51:06;98826.81;;;11.51;100.00
12209;BME280;6167;43.080;25.634;2023-12-14T09:53:33;98823.22;;;11.66;100.00
12209;BME280;6167;43.080;25.634;2023-12-14T09:56:01;98824.06;;;11.66;100.00
12209;BME280;6167;43.080;25.634;2023-12-14T09:58:31;98831.03;;;11.97;100.00
12209;BME280;6167;43.080;25.634;2023-12-14T10:00:58;98836.97;;;12.15;100.00
12209;BME280;6167;43.080;25.634;2023-12-14T10:03:27;98834.88;;;12.06;100.00
12209;BME280;6167;43.080;25.634;2023-12-14T10:05:59;98845.50;;;12.06;100.00
12209;BME280;6167;43.080;25.634;2023-12-14T10:08:28;98845.66;;;12.31;100.00
12209;BME280;6167;43.080;25.634;2023-12-14T10:10:55;98843.41;;;12.11;100.00
12209;BME280;6167;43.080;25.634;2023-12-14T10:14:13;98843.50;;;12.24;100.00
12209;BME280;6167;43.080;25.634;2023-12-14T10:16:40;98847.25;;;12.34;100.00
12209;BME280;6167;43.080;25.634;2023-12-14T10:19:07;98843.28;;;12.27;100.00
12209;BME280;6167;43.080;25.634;2023-12-14T10:21:36;98842.72;;;12.36;100.00
12209;BME280;6167;43.080;25.634;2023-12-14T10:24:03;98837.44;;;12.90;100.00
12209;BME280;6167;43.080;25.634;2023-12-14T10:26:31;98839.41;;;13.40;100.00
12209;BME280;6167;43.080;25.634;2023-12-14T10:29:04;98822.28;;;14.20;100.00
12209;BME280;6167;43.080;25.634;2023-12-14T10:36:02;98810.63;;;14.10;100.00
12209;BME280;6167;43.080;25.634;2023-12-14T10:42:10;98834.16;;;14.40;100.00
12209;BME280;6167;43.080;25.634;2023-12-14T10:45:03;98814.69;;;14.76;100.00
12209;BME280;6167;43.080;25.634;2023-12-14T10:47:47;98846.28;;;15.28;100.00
12209;BME280;6167;43.080;25.634;2023-12-14T10:50:15;98842.44;;;15.08;100.00
12209;BME280;6167;43.080;25.634;2023-12-14T10:52:44;98833.22;;;15.71;100.00
12209;BME280;6167;43.080;25.634;2023-12-14T10:55:23;98836.53;;;16.08;100.00
12209;BME280;6167;43.080;25.634;2023-12-14T10:57:53;98831.25;;;15.62;100.00
12209;BME280;6167;43.080;25.634;2023-12-14T11:00:20;98853.41;;;15.28;100.00
12209;BME280;6167;43.080;25.634;2023-12-14T11:02:47;98839.78;;;15.43;100.00
12209;BME280;6167;43.080;25.634;2023-12-14T11:05:16;98843.19;;;15.10;100.00
12209;BME280;6167;43.080;25.634;2023-12-14T11:07:50;98844.34;;;14.59;100.00
12209;BME280;6167;43.080;25.634;2023-12-14T11:10:22;98832.13;;;14.80;100.00
12209;BME280;6167;43.080;25.634;2023-12-14T11:12:52;98845.09;;;14.85;100.00
12209;BME280;6167;43.080;25.634;2023-12-14T11:15:21;98839.19;;;14.32;100.00
12209;BME280;6167;43.080;25.634;2023-12-14T11:18:23;98843.16;;;14.63;100.00
12209;BME280;6167;43.080;25.634;2023-12-14T11:20:54;98853.03;;;14.12;100.00
12209;BME280;6167;43.080;25.634;2023-12-14T11:23:29;98848.47;;;13.75;100.00
12209;BME280;6167;43.080;25.634;2023-12-14T11:25:58;98865.56;;;13.59;100.00
12209;BME280;6167;43.080;25.634;2023-12-14T11:28:30;98855.81;;;13.85;100.00
12209;BME280;6167;43.080;25.634;2023-12-14T11:30:57;98880.03;;;14.18;100.00
12209;BME280;6167;43.080;25.634;2023-12-14T11:33:25;98859.75;;;13.92;100.00
12209;BME280;6167;43.080;25.634;2023-12-14T11:35:54;98864.75;;;14.09;100.00
12209;BME280;6167;43.080;25.634;2023-12-14T11:38:21;98876.06;;;14.36;100.00
12209;BME280;6167;43.080;25.634;2023-12-14T11:40:49;98880.88;;;14.19;100.00
12209;BME280;6167;43.080;25.634;2023-12-14T11:43:16;98865.31;;;14.38;100.00
12209;BME280;6167;43.080;25.634;2023-12-14T11:45:47;98855.88;;;14.21;100.00
12209;BME280;6167;43.080;25.634;2023-12-14T11:48:15;98861.13;;;14.10;100.00
12209;BME280;6167;43.080;25.634;2023-12-14T11:50:42;98861.84;;;13.74;100.00
12209;BME280;6167;43.080;25.634;2023-12-14T11:53:10;98866.22;;;14.00;100.00
12209;BME280;6167;43.080;25.634;2023-12-14T11:55:38;98869.19;;;13.96;100.00
12209;BME280;6167;43.080;25.634;2023-12-14T11:58:06;98872.72;;;13.84;100.00
12209;BME280;6167;43.080;25.634;2023-12-14T12:00:34;98879.59;;;13.61;100.00
12209;BME280;6167;43.080;25.634;2023-12-14T12:03:14;98884.38;;;13.56;100.00
12209;BME280;6167;43.080;25.634;2023-12-14T12:05:44;98881.06;;;13.39;100.00
12209;BME280;6167;43.080;25.634;2023-12-14T12:08:12;98883.66;;;13.66;100.00
12209;BME280;6167;43.080;25.634;2023-12-14T12:10:40;98876.09;;;13.73;100.00
12209;BME280;6167;43.080;25.634;2023-12-14T12:13:11;98878.53;;;13.51;100.00
12209;BME280;6167;43.080;25.634;2023-12-14T12:15:38;98871.38;;;13.38;100.00
12209;BME280;6167;43.080;25.634;2023-12-14T12:18:07;98871.84;;;13.58;100.00
12209;BME280;6167;43.080;25.634;2023-12-14T12:20:35;98843.81;;;12.87;100.00
12209;BME280;6167;43.080;25.634;2023-12-14T12:23:02;98884.56;;;12.86;100.00
12209;BME280;6167;43.080;25.634;2023-12-14T12:25:30;98894.91;;;12.77;100.00
12209;BME280;6167;43.080;25.634;2023-12-14T12:27:57;98887.63;;;12.80;100.00
12209;BME280;6167;43.080;25.634;2023-12-14T12:30:24;98896.53;;;12.79;100.00
12209;BME280;6167;43.080;25.634;2023-12-14T12:32:51;98906.59;;;12.60;100.00
12209;BME280;6167;43.080;25.634;2023-12-14T12:35:19;98912.03;;;12.85;100.00
12209;BME280;6167;43.080;25.634;2023-12-14T12:37:47;98911.59;;;12.79;100.00
12209;BME280;6167;43.080;25.634;2023-12-14T12:40:20;98916.53;;;12.56;100.00
12209;BME280;6167;43.080;25.634;2023-12-14T12:42:48;98908.78;;;12.67;100.00
12209;BME280;6167;43.080;25.634;2023-12-14T12:45:15;98914.63;;;12.72;100.00
12209;BME280;6167;43.080;25.634;2023-12-14T12:47:43;98908.13;;;12.91;100.00
12209;BME280;6167;43.080;25.634;2023-12-14T12:50:10;98912.13;;;13.11;100.00